createdAt,value
2018-07-03T00:01:06.128Z,100035.77
2018-07-03T00:03:33.791Z,100034.08
2018-07-03T00:06:01.509Z,100029.66
2018-07-03T00:08:29.936Z,100029.27
2018-07-03T00:10:57.619Z,100029.88
2018-07-03T00:13:25.302Z,100030.00
2018-07-03T00:15:53.223Z,100033.47
2018-07-03T00:18:23.705Z,100033.20
2018-07-03T00:20:51.430Z,100032.44
2018-07-03T00:23:19.360Z,100038.20
2018-07-03T00:25:47.076Z,100038.46
2018-07-03T00:28:14.727Z,100037.91
2018-07-03T00:30:42.389Z,100045.77
2018-07-03T00:33:10.491Z,100041.54
2018-07-03T00:35:39.994Z,100043.54
2018-07-03T00:38:07.656Z,100044.19
2018-07-03T00:40:35.312Z,100042.65
2018-07-03T00:43:03.288Z,100049.84
2018-07-03T00:45:31.732Z,100049.36
2018-07-03T00:47:59.367Z,100041.31
2018-07-03T00:50:27.856Z,100040.45
2018-07-03T00:52:55.788Z,100045.99
2018-07-03T00:55:23.444Z,100038.56
2018-07-03T00:57:51.112Z,100034.16
2018-07-03T01:00:18.783Z,100033.37
2018-07-03T01:02:46.739Z,100037.31
2018-07-03T01:05:14.478Z,100033.39
2018-07-03T01:07:42.136Z,100027.27
2018-07-03T01:10:10.080Z,100025.83
2018-07-03T01:12:37.731Z,100028.41
2018-07-03T01:15:05.396Z,100033.14
2018-07-03T01:17:34.397Z,100032.03
2018-07-03T01:20:02.064Z,100025.94
2018-07-03T01:22:29.708Z,100030.03
2018-07-03T01:24:57.644Z,100020.53
2018-07-03T01:27:25.300Z,100026.28
2018-07-03T01:29:52.970Z,100032.13
2018-07-03T01:32:21.331Z,100029.50
2018-07-03T01:34:49.305Z,100028.16
2018-07-03T01:37:17.910Z,100033.35
2018-07-03T01:39:45.592Z,100031.02
2018-07-03T01:42:13.264Z,100030.03
2018-07-03T01:44:41.429Z,100036.09
2018-07-03T01:47:09.112Z,100031.72
2018-07-03T01:49:36.787Z,100033.55
2018-07-03T01:52:04.431Z,100041.27
2018-07-03T01:54:32.339Z,100041.28
2018-07-03T01:57:00.076Z,100042.94
2018-07-03T01:59:27.736Z,100041.22
2018-07-03T02:01:55.397Z,100044.19
2018-07-03T02:04:23.347Z,100046.86
2018-07-03T02:06:51.023Z,100035.30
2018-07-03T02:09:19.497Z,100031.92
2018-07-03T02:11:47.144Z,100034.47
2018-07-03T02:14:15.107Z,100028.48
2018-07-03T02:16:42.791Z,100033.13
2018-07-03T02:19:10.464Z,100029.03
2018-07-03T02:21:38.156Z,100027.63
2018-07-03T02:24:06.228Z,100022.81
2018-07-03T02:26:33.901Z,100017.50
2018-07-03T02:29:01.607Z,100018.55
2018-07-03T02:31:29.284Z,100014.94
2018-07-03T02:33:57.220Z,100014.81
2018-07-03T02:36:25.144Z,100013.41
2018-07-03T02:38:52.781Z,100012.19
2018-07-03T02:41:20.443Z,100012.83
2018-07-03T02:43:48.493Z,100012.47
2018-07-03T02:46:16.196Z,100013.11
2018-07-03T02:48:43.855Z,100005.63
2018-07-03T02:51:11.529Z,100009.87
2018-07-03T02:53:39.520Z,100002.62
2018-07-03T02:56:07.179Z,100008.02
2018-07-03T02:58:34.843Z,100009.87
2018-07-03T03:01:02.536Z,100006.78
2018-07-03T03:03:30.456Z,100011.03
2018-07-03T03:05:58.095Z,100005.48
2018-07-03T03:08:26.049Z,100007.78
2018-07-03T03:10:54.696Z,100008.28
2018-07-03T03:13:22.378Z,100003.92
2018-07-03T03:15:50.039Z,100008.92
2018-07-03T03:18:17.701Z,100003.42
2018-07-03T03:20:45.623Z,100000.63
2018-07-03T03:23:13.350Z,100016.37
2018-07-03T03:25:40.999Z,100004.63
2018-07-03T03:28:08.712Z,100014.10
2018-07-03T03:30:36.672Z,100011.08
2018-07-03T03:33:04.374Z,100012.77
2018-07-03T03:35:32.029Z,100009.70
2018-07-03T03:38:00.031Z,100008.82
2018-07-03T03:40:27.823Z,100011.31
2018-07-03T03:42:55.488Z,100011.14
2018-07-03T03:45:23.143Z,100011.31
2018-07-03T03:47:51.147Z,100015.85
2018-07-03T03:50:18.783Z,100012.30
2018-07-03T03:52:46.443Z,100015.42
2018-07-03T03:55:14.836Z,100015.16
2018-07-03T03:57:42.825Z,100020.52
2018-07-03T04:00:11.355Z,100009.12
2018-07-03T04:02:39.244Z,100015.06
2018-07-03T04:05:07.877Z,100019.33
2018-07-03T04:07:35.972Z,100019.86
2018-07-03T04:10:03.617Z,100019.16
2018-07-03T04:12:31.284Z,100016.37
2018-07-03T04:14:59.079Z,100018.41
2018-07-03T04:17:28.196Z,100020.55
2018-07-03T04:19:55.847Z,100024.67
2018-07-03T04:22:23.496Z,100019.63
2018-07-03T04:24:51.154Z,100023.41
2018-07-03T04:27:19.103Z,100022.73
2018-07-03T04:29:46.778Z,100028.83
2018-07-03T04:32:15.439Z,100031.06
2018-07-03T04:34:43.382Z,100031.80
2018-07-03T04:37:11.055Z,100028.45
2018-07-03T04:39:38.712Z,100020.03
2018-07-03T04:42:06.648Z,100021.79
2018-07-03T04:44:34.307Z,100022.23
2018-07-03T04:47:02.005Z,100022.77
2018-07-03T04:49:29.940Z,100026.02
2018-07-03T04:51:57.582Z,100031.23
2018-07-03T04:54:27.186Z,100025.31
2018-07-03T04:56:55.135Z,100030.33
2018-07-03T04:59:22.775Z,100025.31
2018-07-03T05:01:50.437Z,100030.10
2018-07-03T05:04:18.499Z,100028.41
2018-07-03T05:06:46.179Z,100035.92
2018-07-03T05:09:13.907Z,100043.39
2018-07-03T05:11:41.923Z,100037.70
2018-07-03T05:14:10.123Z,100041.16
2018-07-03T05:16:37.943Z,100045.80
2018-07-03T05:19:05.893Z,100041.70
2018-07-03T05:21:33.544Z,100043.09
2018-07-03T05:24:01.228Z,100044.60
2018-07-03T05:26:29.160Z,100038.77
2018-07-03T05:28:59.835Z,100035.89
2018-07-03T05:31:27.532Z,100037.03
2018-07-03T05:33:55.697Z,100044.22
2018-07-03T05:36:23.199Z,100038.27
2018-07-03T05:38:50.849Z,100036.17
2018-07-03T05:41:19.204Z,100042.84
2018-07-03T05:43:47.566Z,100041.70
2018-07-03T05:46:15.219Z,100042.62
2018-07-03T05:48:43.175Z,100046.92
2018-07-03T05:51:10.829Z,100039.63
2018-07-03T05:53:38.476Z,100041.92
2018-07-03T05:56:06.403Z,100047.36
2018-07-03T05:58:34.096Z,100046.73
2018-07-03T06:01:01.765Z,100050.30
2018-07-03T06:03:30.703Z,100046.28
2018-07-03T06:05:58.372Z,100046.44
2018-07-03T06:08:26.060Z,100043.46
2018-07-03T06:10:53.747Z,100044.63
2018-07-03T06:13:21.470Z,100045.42
2018-07-03T06:15:49.407Z,100050.82
2018-07-03T06:18:17.909Z,100053.30
2018-07-03T06:20:45.607Z,100045.17
2018-07-03T06:23:13.582Z,100047.22
2018-07-03T06:25:41.229Z,100045.34
2018-07-03T06:28:09.721Z,100053.45
2018-07-03T06:30:38.593Z,100048.38
2018-07-03T06:33:06.254Z,100045.81
2018-07-03T06:35:33.920Z,100047.62
2018-07-03T06:38:01.872Z,100053.63
2018-07-03T06:40:29.537Z,100052.52
2018-07-03T06:42:57.189Z,100049.70
2018-07-03T06:45:25.136Z,100044.07
2018-07-03T06:47:52.831Z,100044.16
2018-07-03T06:50:20.491Z,100050.94
2018-07-03T06:52:48.625Z,100046.34
2018-07-03T06:55:16.196Z,100040.74
2018-07-03T06:57:46.498Z,100046.16
2018-07-03T07:00:15.571Z,100045.66
2018-07-03T07:02:44.329Z,100041.41
2018-07-03T07:05:12.004Z,100042.55
2018-07-03T07:07:39.935Z,100042.59
2018-07-03T07:10:08.805Z,100041.25
2018-07-03T07:12:36.472Z,100030.36
2018-07-03T07:15:04.506Z,100035.08
2018-07-03T07:17:32.168Z,100037.94
2018-07-03T07:20:00.520Z,100034.92
2018-07-03T07:22:28.521Z,100035.61
2018-07-03T07:24:56.171Z,100032.38
2018-07-03T07:27:23.840Z,100025.72
2018-07-03T07:29:51.771Z,100026.16
2018-07-03T07:32:19.428Z,100026.99
2018-07-03T07:34:47.076Z,100024.75
2018-07-03T07:37:15.012Z,100022.61
2018-07-03T07:39:42.659Z,100021.81
2018-07-03T07:42:10.331Z,100020.74
2018-07-03T07:44:38.435Z,100021.36
2018-07-03T07:47:07.414Z,100017.88
2018-07-03T07:49:36.172Z,100027.14
2018-07-03T07:52:04.128Z,100025.00
2018-07-03T07:54:32.590Z,100024.20
2018-07-03T07:57:00.256Z,100019.74
2018-07-03T07:59:28.220Z,100014.77
2018-07-03T08:01:55.901Z,100014.81
2018-07-03T08:04:23.553Z,100016.91
2018-07-03T08:06:51.666Z,100011.80
2018-07-03T08:09:19.580Z,100010.66
2018-07-03T08:11:47.243Z,100001.33
2018-07-03T08:14:15.155Z,100004.50
2018-07-03T08:16:43.767Z,100004.08
2018-07-03T08:19:11.468Z,100004.07
2018-07-03T08:21:39.451Z,100002.16
2018-07-03T08:24:07.165Z,100008.09
2018-07-03T08:26:34.839Z,100009.33
2018-07-03T08:29:02.788Z,100006.60
2018-07-03T08:31:30.459Z,100005.61
2018-07-03T08:33:58.599Z,100009.25
2018-07-03T08:36:26.548Z,100007.55
2018-07-03T08:38:54.220Z,100002.90
2018-07-03T08:41:21.879Z,100011.98
2018-07-03T08:43:50.856Z,100003.03
2018-07-03T08:46:18.545Z,100007.30
2018-07-03T08:48:47.396Z,100006.98
2018-07-03T08:51:15.335Z,100010.45
2018-07-03T08:53:45.416Z,100006.64
2018-07-03T08:56:13.899Z,100003.23
2018-07-03T08:58:41.825Z,99996.98
2018-07-03T09:01:10.209Z,100004.08
2018-07-03T09:03:39.268Z,99998.80
2018-07-03T09:06:07.215Z,100000.98
2018-07-03T09:08:35.704Z,100002.70
2018-07-03T09:11:03.352Z,100006.83
2018-07-03T09:13:32.328Z,100002.23
2018-07-03T09:16:01.393Z,100001.75
2018-07-03T09:18:29.056Z,100003.71
2018-07-03T09:20:57.682Z,100002.37
2018-07-03T09:23:25.350Z,99994.91
2018-07-03T09:25:53.091Z,99995.50
2018-07-03T09:28:21.836Z,99995.33
2018-07-03T09:30:49.500Z,99994.56
2018-07-03T09:33:17.200Z,99990.20
2018-07-03T09:35:45.227Z,99989.25
2018-07-03T09:38:14.684Z,99987.98
2018-07-03T09:40:42.377Z,99986.80
2018-07-03T09:43:10.357Z,99986.19
2018-07-03T09:45:39.419Z,99975.73
2018-07-03T09:48:09.945Z,99979.78
2018-07-03T09:50:41.554Z,99976.98
2018-07-03T09:53:11.778Z,99974.87
2018-07-03T09:55:40.393Z,99974.80
2018-07-03T09:58:10.253Z,99974.77
2018-07-03T10:00:43.997Z,99976.14
2018-07-03T10:03:11.705Z,99971.20
2018-07-03T10:05:39.684Z,99976.60
2018-07-03T10:08:07.344Z,99982.13
2018-07-03T10:10:36.359Z,99984.94
2018-07-03T10:13:05.187Z,99979.52
2018-07-03T10:15:35.668Z,99982.92
2018-07-03T10:18:03.639Z,99980.89
2018-07-03T10:20:32.801Z,99977.29
2018-07-03T10:23:02.309Z,99975.16
2018-07-03T10:25:30.066Z,99972.64
2018-07-03T10:27:58.040Z,99976.91
2018-07-03T10:30:25.697Z,99978.82
2018-07-03T10:32:57.532Z,99976.28
2018-07-03T10:35:26.390Z,99970.37
2018-07-03T10:37:57.082Z,99969.65
2018-07-03T10:40:25.477Z,99967.23
2018-07-03T10:42:54.412Z,99961.92
2018-07-03T10:45:24.295Z,99967.59
2018-07-03T10:47:53.171Z,99963.58
2018-07-03T10:50:21.277Z,99963.08
2018-07-03T10:52:53.287Z,99955.88
2018-07-03T10:55:23.359Z,99957.83
2018-07-03T10:57:51.456Z,99957.85
2018-07-03T11:06:22.464Z,99959.22
2018-07-03T11:08:50.123Z,99953.41
2018-07-03T11:11:19.216Z,99952.83
2018-07-03T11:13:49.461Z,99949.17
2018-07-03T11:16:23.265Z,99946.06
2018-07-03T11:18:51.261Z,99949.84
2018-07-03T11:21:19.900Z,99946.12
2018-07-03T11:23:48.445Z,99947.69
2018-07-03T11:26:18.312Z,99952.02
2018-07-03T11:28:46.642Z,99946.61
2018-07-03T11:31:14.306Z,99941.73
2018-07-03T11:33:43.071Z,99946.88
2018-07-03T11:36:12.149Z,99944.06
2018-07-03T11:38:39.844Z,99944.73
2018-07-03T11:41:08.444Z,99938.21
2018-07-03T11:43:36.144Z,99944.72
2018-07-03T11:46:04.170Z,99938.89
2018-07-03T11:48:32.957Z,99935.86
2018-07-03T11:51:00.615Z,99935.73
2018-07-03T11:53:28.304Z,99932.89
2018-07-03T11:55:56.252Z,99937.55
2018-07-03T11:58:24.870Z,99928.38
2018-07-03T12:00:52.524Z,99924.17
2018-07-03T12:03:20.462Z,99918.92
2018-07-03T12:05:48.156Z,99918.58
2018-07-03T12:08:20.517Z,99919.55
2018-07-03T12:10:48.519Z,99915.73
2018-07-03T12:13:16.205Z,99915.47
2018-07-03T12:15:58.319Z,99910.49
2018-07-03T12:18:31.322Z,99909.48
2018-07-03T12:21:00.949Z,99911.77
2018-07-03T12:23:29.408Z,99908.49
2018-07-03T12:25:59.397Z,99907.66
2018-07-03T12:28:27.961Z,99905.70
2018-07-03T12:30:56.470Z,99905.48
2018-07-03T12:33:24.722Z,99901.52
2018-07-03T12:35:52.373Z,99896.73
2018-07-03T12:38:20.356Z,99893.79
2018-07-03T12:40:48.700Z,99888.20
2018-07-03T12:43:16.351Z,99891.78
2018-07-03T12:45:45.969Z,99893.31
2018-07-03T12:48:17.197Z,99890.35
2018-07-03T12:50:45.685Z,99894.72
2018-07-03T12:53:13.864Z,99890.53
2018-07-03T12:55:42.544Z,99890.16
2018-07-03T12:58:11.523Z,99888.02
2018-07-03T13:00:41.244Z,99883.51
2018-07-03T13:03:08.951Z,99888.08
2018-07-03T13:05:36.627Z,99884.52
2018-07-03T13:08:05.460Z,99883.94
2018-07-03T13:10:33.175Z,99878.53
2018-07-03T13:13:01.364Z,99884.19
2018-07-03T13:15:29.389Z,99888.20
2018-07-03T13:17:59.460Z,99886.42
2018-07-03T13:20:27.611Z,99873.53
2018-07-03T13:22:55.607Z,99867.70
2018-07-03T13:25:25.259Z,99873.67
2018-07-03T13:27:52.956Z,99872.95
2018-07-03T13:30:20.898Z,99866.86
2018-07-03T13:32:48.555Z,99864.07
2018-07-03T13:35:16.260Z,99863.13
2018-07-03T13:37:44.236Z,99865.22
2018-07-03T13:40:13.408Z,99858.55
2018-07-03T13:42:42.277Z,99858.72
2018-07-03T13:45:15.155Z,99866.19
2018-07-03T13:47:43.692Z,99862.79
2018-07-03T13:50:11.897Z,99857.95
2018-07-03T13:52:40.812Z,99856.13
2018-07-03T13:55:10.270Z,99857.69
2018-07-03T13:57:37.936Z,99855.58
2018-07-03T14:00:06.532Z,99859.50
2018-07-03T14:02:34.247Z,99856.45
2018-07-03T14:05:05.683Z,99849.38
2018-07-03T14:07:33.629Z,99846.23
2018-07-03T14:10:01.373Z,99847.54
2018-07-03T14:12:29.633Z,99848.00
2018-07-03T14:14:57.692Z,99846.95
2018-07-03T14:17:28.322Z,99842.84
2018-07-03T14:20:00.101Z,99846.85
2018-07-03T14:22:29.024Z,99837.95
2018-07-03T14:24:56.728Z,99843.98
2018-07-03T14:27:24.440Z,99834.36
2018-07-03T14:29:52.463Z,99834.81
2018-07-03T14:32:20.196Z,99834.13
2018-07-03T14:37:22.771Z,99829.89
2018-07-03T14:39:55.829Z,99824.13
2018-07-03T14:42:23.493Z,99825.29
2018-07-03T14:44:52.303Z,99822.52
2018-07-03T14:47:20.625Z,99820.20
2018-07-03T14:49:48.811Z,99820.25
2018-07-03T14:52:16.971Z,99815.75
2018-07-03T14:54:44.631Z,99818.19
2018-07-03T14:57:13.188Z,99815.44
2018-07-03T14:59:41.743Z,99818.28
2018-07-03T15:02:09.680Z,99819.53
2018-07-03T15:04:37.410Z,99813.17
2018-07-03T15:07:07.548Z,99814.58
2018-07-03T15:09:35.217Z,99813.14
2018-07-03T15:12:02.920Z,99809.57
2018-07-03T15:14:31.180Z,99809.33
2018-07-03T15:16:59.444Z,99809.50
2018-07-03T15:19:32.157Z,99804.72
2018-07-03T15:22:01.513Z,99805.85
2018-07-03T15:24:34.968Z,99803.61
2018-07-03T15:27:03.289Z,99804.53
2018-07-03T15:29:32.204Z,99796.86
2018-07-03T15:32:00.938Z,99795.45
2018-07-03T15:34:29.217Z,99792.88
2018-07-03T15:36:57.151Z,99791.91
2018-07-03T15:39:25.521Z,99795.73
2018-07-03T15:41:55.124Z,99791.52
2018-07-03T15:44:24.060Z,99787.16
2018-07-03T15:46:52.361Z,99780.92
2018-07-03T15:49:20.736Z,99778.09
2018-07-03T15:51:49.900Z,99775.88
2018-07-03T15:54:18.533Z,99781.92
2018-07-03T15:56:46.225Z,99781.04
2018-07-03T15:59:14.705Z,99780.35
2018-07-03T16:01:42.486Z,99783.47
2018-07-03T16:04:10.580Z,99783.59
2018-07-03T16:06:38.509Z,99775.81
2018-07-03T16:09:07.353Z,99772.17
2018-07-03T16:11:41.406Z,99772.20
2018-07-03T16:14:09.540Z,99766.64
2018-07-03T16:16:38.052Z,99763.48
2018-07-03T16:19:11.101Z,99760.21
2018-07-03T16:21:39.374Z,99763.49
2018-07-03T16:24:07.291Z,99764.89
2018-07-03T16:26:36.833Z,99757.03
2018-07-03T16:29:05.092Z,99760.85
2018-07-03T16:31:32.752Z,99760.10
2018-07-03T16:34:03.624Z,99760.13
2018-07-03T16:36:33.235Z,99760.18
2018-07-03T16:39:02.340Z,99752.59
2018-07-03T16:41:30.617Z,99755.45
2018-07-03T16:43:58.304Z,99748.68
2018-07-03T16:46:26.778Z,99753.66
2018-07-03T16:48:54.711Z,99758.38
2018-07-03T16:51:23.421Z,99749.52
2018-07-03T16:53:51.093Z,99754.61
2018-07-03T16:56:19.120Z,99759.03
2018-07-03T16:58:48.641Z,99757.05
2018-07-03T17:01:16.468Z,99758.54
2018-07-03T17:03:44.459Z,99759.22
2018-07-03T17:06:12.968Z,99756.06
2018-07-03T17:08:40.653Z,99757.72
2018-07-03T17:11:08.624Z,99754.86
2018-07-03T17:13:36.385Z,99755.27
2018-07-03T17:16:05.524Z,99757.34
2018-07-03T17:18:34.349Z,99754.20
2018-07-03T17:21:02.872Z,99765.12
2018-07-03T17:23:30.707Z,99757.87
2018-07-03T17:25:59.284Z,99759.74
2018-07-03T17:28:28.461Z,99759.70
2018-07-03T17:30:56.943Z,99755.85
2018-07-03T17:33:25.493Z,99757.78
2018-07-03T17:35:53.196Z,99760.57
2018-07-03T17:38:21.582Z,99758.18
2018-07-03T17:40:51.435Z,99757.43
2018-07-03T17:43:19.901Z,99748.17
2018-07-03T17:45:49.557Z,99752.62
2018-07-03T17:48:18.407Z,99752.41
2018-07-03T17:50:47.188Z,99751.43
2018-07-03T17:53:14.831Z,99746.86
2018-07-03T17:55:44.591Z,99746.33
2018-07-03T17:58:13.312Z,99742.02
2018-07-03T18:00:42.444Z,99746.28
2018-07-03T18:03:10.579Z,99744.73
2018-07-03T18:05:39.566Z,99750.61
2018-07-03T18:08:11.387Z,99745.80
2018-07-03T18:10:40.421Z,99742.05
2018-07-03T18:13:09.704Z,99738.89
2018-07-03T18:15:38.607Z,99736.52
2018-07-03T18:18:07.761Z,99731.96
2018-07-03T18:20:35.440Z,99727.66
2018-07-03T18:23:03.768Z,99734.34
2018-07-03T18:25:32.540Z,99728.11
2018-07-03T18:28:02.535Z,99740.30
2018-07-03T18:30:30.211Z,99738.50
2018-07-03T18:33:01.015Z,99741.36
2018-07-03T18:35:30.276Z,99739.56
2018-07-03T18:38:00.124Z,99740.98
2018-07-03T18:40:28.227Z,99746.02
2018-07-03T18:42:59.491Z,99746.12
2018-07-03T18:45:27.180Z,99740.44
2018-07-03T18:47:56.656Z,99739.92
2018-07-03T18:50:25.388Z,99745.17
2018-07-03T18:52:53.333Z,99745.28
2018-07-03T18:55:21.292Z,99744.54
2018-07-03T18:57:48.977Z,99745.93
2018-07-03T19:00:16.712Z,99748.06
2018-07-03T19:02:45.299Z,99752.09
2018-07-03T19:05:13.816Z,99750.16
2018-07-03T19:07:43.391Z,99749.06
2018-07-03T19:10:12.298Z,99754.75
2018-07-03T19:12:41.624Z,99754.11
2018-07-03T19:15:10.250Z,99759.11
2018-07-03T19:17:38.166Z,99758.71
2018-07-03T19:20:06.452Z,99761.83
2018-07-03T19:22:34.210Z,99765.20
2018-07-03T19:25:02.956Z,99777.37
2018-07-03T19:27:30.741Z,99776.44
2018-07-03T19:29:58.647Z,99775.24
2018-07-03T19:32:27.372Z,99766.48
2018-07-03T19:34:55.712Z,99776.47
2018-07-03T19:37:24.197Z,99774.20
2018-07-03T19:39:53.599Z,99778.16
2018-07-03T19:42:23.424Z,99775.83
2018-07-03T19:44:51.893Z,99782.99
2018-07-03T19:47:19.837Z,99786.61
2018-07-03T19:49:48.433Z,99783.69
2018-07-03T19:52:17.264Z,99790.31
2018-07-03T19:57:27.689Z,99785.77
2018-07-03T19:59:55.637Z,99793.23
2018-07-03T20:02:23.684Z,99788.61
2018-07-03T20:04:51.928Z,99783.98
2018-07-03T20:07:20.973Z,99786.19
2018-07-03T20:09:50.638Z,99785.35
2018-07-03T20:12:19.928Z,99786.88
2018-07-03T20:14:48.586Z,99791.58
2018-07-03T20:17:16.924Z,99792.67
2018-07-03T20:19:45.956Z,99797.36
2018-07-03T20:22:13.637Z,99796.58
2018-07-03T20:24:42.170Z,99797.50
2018-07-03T20:27:10.107Z,99793.80
2018-07-03T20:29:39.940Z,99794.05
2018-07-03T20:32:07.649Z,99797.03
2018-07-03T20:34:35.618Z,99799.12
2018-07-03T20:37:03.289Z,99795.47
2018-07-03T20:39:34.502Z,99789.64
2018-07-03T20:42:02.484Z,99787.17
2018-07-03T20:44:30.385Z,99797.01
2018-07-03T20:46:59.068Z,99799.05
2018-07-03T20:49:27.214Z,99805.80
2018-07-03T20:51:54.920Z,99807.30
2018-07-03T20:54:27.572Z,99812.14
2018-07-03T20:56:55.529Z,99806.72
2018-07-03T20:59:24.204Z,99809.56
2018-07-03T21:01:52.425Z,99811.87
2018-07-03T21:04:21.255Z,99815.73
2018-07-03T21:06:48.971Z,99821.41
2018-07-03T21:09:19.589Z,99823.98
2018-07-03T21:11:47.778Z,99821.00
2018-07-03T21:14:15.448Z,99824.60
2018-07-03T21:16:43.128Z,99824.50
2018-07-03T21:19:11.795Z,99822.16
2018-07-03T21:21:39.492Z,99817.31
2018-07-03T21:24:07.685Z,99818.60
2018-07-03T21:26:36.624Z,99818.25
2018-07-03T21:29:05.499Z,99819.57
2018-07-03T21:31:33.164Z,99825.30
2018-07-03T21:34:02.445Z,99817.13
2018-07-03T21:39:11.330Z,99821.09
2018-07-03T21:41:40.229Z,99821.17
2018-07-03T21:44:07.936Z,99823.34
2018-07-03T21:46:35.613Z,99823.16
2018-07-03T21:49:03.576Z,99827.63
2018-07-03T21:51:32.052Z,99828.42
2018-07-03T21:53:59.749Z,99833.06
2018-07-03T21:56:27.684Z,99827.20
2018-07-03T21:58:55.393Z,99827.42
2018-07-03T22:01:23.057Z,99821.53
2018-07-03T22:03:52.647Z,99826.30
2018-07-03T22:06:20.337Z,99827.66
2018-07-03T22:08:49.564Z,99829.72
2018-07-03T22:11:22.940Z,99831.08
2018-07-03T22:13:51.587Z,99834.15
2018-07-03T22:16:19.290Z,99830.11
2018-07-03T22:18:47.274Z,99834.16
2018-07-03T22:21:15.250Z,99840.58
2018-07-03T22:23:43.572Z,99836.53
2018-07-03T22:26:12.565Z,99841.92
2018-07-03T22:28:40.268Z,99839.06
2018-07-03T22:31:08.282Z,99845.37
2018-07-03T22:33:36.208Z,99844.06
2018-07-03T22:36:03.896Z,99841.25
2018-07-03T22:38:31.628Z,99843.16
2018-07-03T22:40:59.569Z,99833.42
2018-07-03T22:43:27.233Z,99840.56
2018-07-03T22:45:57.070Z,99843.77
2018-07-03T22:48:25.269Z,99837.39
2018-07-03T22:50:54.001Z,99845.19
2018-07-03T22:53:21.700Z,99847.05
2018-07-03T22:55:50.217Z,99842.17
2018-07-03T22:58:19.046Z,99840.30
2018-07-03T23:00:46.780Z,99833.41
2018-07-03T23:03:14.736Z,99843.14
2018-07-03T23:05:42.465Z,99843.14
2018-07-03T23:08:10.421Z,99849.39
2018-07-03T23:10:38.458Z,99848.05
2018-07-03T23:13:06.368Z,99853.43
2018-07-03T23:15:35.728Z,99846.36
2018-07-03T23:18:03.946Z,99845.34
2018-07-03T23:20:31.958Z,99847.19
2018-07-03T23:23:00.376Z,99846.85
2018-07-03T23:25:28.055Z,99839.64
2018-07-03T23:27:55.770Z,99840.47
2018-07-03T23:30:23.717Z,99837.97
2018-07-03T23:32:51.389Z,99835.44
2018-07-03T23:35:19.052Z,99841.65
2018-07-03T23:37:46.716Z,99837.75
2018-07-03T23:40:14.681Z,99841.80
2018-07-03T23:42:42.872Z,99840.27
2018-07-03T23:45:11.675Z,99842.27
2018-07-03T23:47:40.746Z,99844.11
2018-07-03T23:50:08.697Z,99847.33
2018-07-03T23:52:36.361Z,99848.34
2018-07-03T23:55:04.024Z,99848.83
2018-07-03T23:57:31.686Z,99849.66
2018-07-03T23:59:59.638Z,99849.67
